Flugplatz Bartholomä-Amalienhof

Für EDPU sind keine METAR/TAF Berichte vorhanden.
Es werden die Flugwettermeldungen vom Flugplatz Adolf Würth in 44 km Entfernung angezeigt.

Bericht für EDTY

vom 04.03. um 06:20 UTC

variable Windrichtung mit 1 kt

Sichtweite 10 km oder mehr

gute Sicht, keine Wolken < 5000 ft, keine CB, keine Wettererscheinungen (CAVOK)

Temperatur 4.0°C

Taupunkt 1.0°C

Luftfeuchtigkeit 81%

Luftdruck 1021 hPa

EDTY 040620Z VRB01KT CAVOK 04/01 Q1021

Prognose für EDTY

vom 04.03. um 06:05 UTC

Zwischen 07:00 UTC und 10:00 UTC

variable Windrichtung mit 2 kt

Sichtweite 10 km oder mehr

aufgelockert bewölkt in 3000 ft


Zwischen 10:00 und 12:00 UTC übergehend zu

Wind 8 kt aus 270°

Sichtweite 10 km oder mehr

aufgelockert bewölkt in 3000 ft

TAF EDTY 040605Z 0407/0415 VRB02KT 9999 SCT030 BECMG 0410/0412 27008KT
Impressum